KU4ME Weather Reports


Display with metric or nautical units.
time (UTC)temp
F
wind
direction
speed
MPH
gust
MPH
rain 1hr
in
rain 24hr
in
rain mn
in
humidity
%
barometer
mb
20190325114006 47 137 0.0 0.0 0.00 0.00 0.00 100 1006.1
20190325113005 47 137 0.0 0.0 0.00 0.00 0.00 100 1005.8
20190325112005 47 137 0.0 0.0 0.00 0.00 0.00 100 1005.5
20190325111005 47 137 0.0 0.0 0.00 0.00 0.00 100 1005.6
20190325105008 47 137 0.0 0.0 0.00 0.00 0.00 96 1004.9
20190325103004 46 137 0.0 0.0 0.00 0.00 0.00 94 1005.2
20190325102005 46 137 0.0 0.0 0.00 0.00 0.00 94 1005.0
20190325101005 45 137 0.0 0.0 0.00 0.00 0.00 94 1004.9
20190325095005 45 137 0.0 0.0 0.00 0.00 0.00 92 1005.1
20190325094005 45 137 0.0 0.0 0.00 0.00 0.00 92 1005.2
20190325093004 45 137 0.0 0.0 0.00 0.00 0.00 93 1005.2
20190325090004 45 137 0.0 0.0 0.00 0.00 0.00 90 1005.6
20190325085005 46 137 0.0 0.0 0.00 0.00 0.00 90 1005.7
20190325083004 46 137 0.0 0.0 0.00 0.00 0.00 90 1006.0
20190325082005 46 137 0.0 0.0 0.00 0.00 0.00 90 1006.1
20190325081005 46 137 0.0 0.0 0.00 0.00 0.00 90 1006.2
20190325080004 46 137 0.0 0.0 0.00 0.00 0.00 87 1006.2
20190325074005 47 137 0.0 0.0 0.00 0.00 0.00 86 1006.3
20190325073005 47 137 0.0 0.0 0.00 0.00 0.00 86 1006.7
20190325070003 48 137 0.0 0.0 0.00 0.00 0.00 82 1006.9
20190325065005 48 137 0.0 0.0 0.00 0.00 0.00 81 1007.2
20190325064005 48 137 0.0 0.0 0.00 0.00 0.00 82 1007.3
20190325063005 48 137 0.0 0.0 0.00 0.00 0.00 82 1007.6
20190325062004 48 137 0.0 0.0 0.00 0.00 0.00 82 1007.6
20190325061006 48 137 0.0 0.0 0.00 0.00 0.00 79 1007.5
20190325055005 49 137 0.0 0.0 0.00 0.00 0.00 77 1007.6
20190325054004 49 137 0.0 0.0 0.00 0.00 0.00 77 1007.8
20190325051005 50 137 0.0 0.0 0.00 0.00 0.00 73 1008.2
20190325050004 50 137 0.0 0.0 0.00 0.00 0.00 74 1008.1
20190325043004 51 137 0.0 0.0 0.00 0.00 0.00 70 1008.3
20190325042005 51 137 0.0 0.0 0.00 0.00 0.00 69 1008.4
20190325041006 51 137 0.0 0.0 0.00 0.00 0.00 69 1008.4
20190325040004 52 137 0.0 0.0 0.00 0.00 0.00 69 1008.4
20190325034005 52 137 0.0 0.0 0.00 0.00 0.00 66 1008.5
20190325030004 55 137 0.0 0.0 0.00 0.00 0.00 64 1008.7
20190325025005 56 137 0.0 0.0 0.00 0.00 0.00 62 1008.8
20190325024005 56 137 0.0 0.0 0.00 0.00 0.00 60 1008.9
20190325021004 57 137 0.0 0.0 0.00 0.00 0.00 57 1008.9
20190325014004 58 137 0.0 0.0 0.00 0.00 0.00 55 1009.2
20190325012005 58 137 0.0 0.0 0.00 0.00 0.00 55 1009.2
20190325010004 60 137 0.0 0.0 0.00 0.00 0.00 52 1009.2
20190325003004 62 137 0.0 0.0 0.00 0.00 0.00 49 1009.1
20190325001005 63 137 0.0 0.0 0.00 0.00 0.00 43 1009.2
20190324235005 64 137 0.0 0.0 0.00 0.00 0.00 40 1009.1
20190324231005 66 137 0.0 0.0 0.00 0.00 0.00 37 1009.2
20190324224005 66 126 0.0 0.0 0.00 0.00 0.00 36 1009.2
20190324223004 67 126 0.0 0.0 0.00 0.00 0.00 36 1009.1
20190324222006 67 126 1.0 10.0 0.00 0.00 0.00 33 1009.1
20190324221004 68 23 1.0 7.0 0.00 0.00 0.00 34 1009.4
20190324220004 68 61 0.0 0.0 0.00 0.00 0.00 34 1009.5
20190324214005 66 61 0.0 0.0 0.00 0.00 0.00 36 1009.5
20190324213004 67 61 0.0 0.0 0.00 0.00 0.00 36 1009.5
20190324212006 67 61 0.0 0.0 0.00 0.00 0.00 34 1009.5
20190324211005 68 61 0.0 7.0 0.00 0.00 0.00 34 1009.6
20190324210004 68 322 1.0 6.0 0.00 0.00 0.00 33 1009.7
20190324205005 68 301 0.0 6.0 0.00 0.00 0.00 34 1009.9
20190324204005 68 123 0.0 7.0 0.00 0.00 0.00 34 1009.9
20190324200004 68 239 0.0 3.0 0.00 0.00 0.00 34 1010.3
20190324194005 69 37 0.0 8.0 0.00 0.00 0.00 34 1010.5
20190324193004 69 162 2.0 8.0 0.00 0.00 0.00 32 1010.7
20190324192006 69 277 0.0 7.0 0.00 0.00 0.00 34 1010.8
20190324191005 69 285 1.0 10.0 0.00 0.00 0.00 32 1011.0
20190324185005 71 282 3.0 12.0 0.00 0.00 0.00 31 1011.4
20190324182004 69 109 1.0 8.0 0.00 0.00 0.00 32 1011.8
20190324175005 69 203 1.0 9.0 0.00 0.00 0.00 32 1012.5
20190324172005 68 264 0.0 8.0 0.00 0.00 0.00 34 1012.8
20190324170005 66 347 0.0 3.0 0.00 0.00 0.00 35 1013.2
20190324164004 65 0 1.0 10.0 0.00 0.00 0.00 36 1013.6
20190324163004 64 75 0.0 6.0 0.00 0.00 0.00 35 1013.8
20190324162004 63 219 1.0 2.0 0.00 0.00 0.00 37 1013.9
20190324155005 59 128 0.0 0.0 0.00 0.00 0.00 41 1014.4
20190324154005 59 128 1.0 7.0 0.00 0.00 0.00 40 1014.7
20190324153005 58 109 0.0 0.0 0.00 0.00 0.00 43 1014.7
20190324152005 57 109 0.0 0.0 0.00 0.00 0.00 44 1014.7
20190324151004 55 109 0.0 0.0 0.00 0.00 0.00 45 1014.7
20190324144004 52 48 0.0 0.0 0.00 0.00 0.00 50 1014.8
20190324143005 50 48 0.0 0.0 0.00 0.00 0.00 56 1014.8
20190324142005 49 48 0.0 0.0 0.00 0.00 0.00 56 1014.9
20190324140004 48 48 0.0 0.0 0.00 0.00 0.00 59 1015.1
20190324133004 46 48 0.0 0.0 0.00 0.00 0.00 74 1015.1
20190324132005 44 48 0.0 0.0 0.00 0.00 0.00 81 1015.1
20190324130005 41 48 0.0 0.0 0.00 0.00 0.00 92 1015.0
20190324125005 39 48 0.0 0.0 0.00 0.00 0.00 93 1015.0
20190324124005 38 48 0.0 0.0 0.00 0.00 0.00 95 1014.9